WMKK/KUL METAR and TAF weather

Enter ICAO airport designator
Station Type Date Time Source
WMKK METAR 2021/09/20 04:00 UTC NOAA

WMKK 200400Z VRB03KT 9999 FEW020 31/23 Q1011 NOSIG


Station Type Date Time Source
WMKK Decoded METAR 2021/09/20 04:00 UTC NOAA

Sepang/KL International Airport, Malaysia (WMKK) 02-44N 101-42E 22M
Sep 20, 2021 - 12:00 AM EDT / 2021.09.20 0400 UTC
Wind: Variable at 3 MPH (3 KT):0
Visibility: greater than 7 mile(s):0
Sky conditions: mostly clear
Temperature: 87 F (31 C)
Heat index: 93.9 F (34.4 C):1
Dew Point: 73 F (23 C)
Relative Humidity: 62%
Pressure (altimeter): 29.85 in. Hg (1011 hPa)
ob: WMKK 200400Z VRB03KT 9999 FEW020 31/23 Q1011 NOSIG
cycle: 4

Station Type Date Time Source
WMKK TAF 2021/09/19 18:09 UTC NOAA

TAF WMKK 191700Z 1918/2100 27003KT 9999 FEW017CB
TEMPO 1918/1922 3000 TSRA FEW008 FEW015CB SCT018

Example: see airport list